Airports

 

 

Airport Name Latest METAR Visual Conditions
Atlanta International (ATL) KATL 251301Z 28008KT 10SM FEW012 FEW022 SCT029 03/00 A3006 RMK AO2 T00280000 VFR
Asheville Regional (AVL) KAVL 251254Z 34011KT 10SM SCT015 OVC036 03/00 A2994 RMK AO2 SLP139 T00330000 VFR
Birmingham International (BHM) KBHM 251253Z 28005KT 10SM FEW035 02/M01 A3015 RMK AO2 SLP212 T00221006 VFR
Chattanooga (CHA) KCHA 251253Z 26007KT 10SM OVC032 04/M02 A3008 RMK AO2 SLP187 T00441017 VFR
Charlotte International (CLT) KCLT 251252Z 00000KT 5SM BR OVC003 05/04 A2995 RMK AO2 SLP143 T00500039 LIFR
Greensboro Piedmont-Triad (GSO) KGSO 251254Z 26008KT 4SM BR OVC004 06/05 A2991 RMK AO2 SLP127 T00560050 $ LIFR
Greenville-Spartanburg International (GSP) KGSP 251305Z 25003KT 2 1/2SM BR SCT002 03/02 A2995 RMK AO2 TWR VIS 8 T00280022 $ IFR
Middle Georgia Regional Airport (MCN) KMCN 251253Z 28006KT 10SM CLR 03/01 A3010 RMK AO2 SLP193 T00280011 VFR
Tri-Cities Airport (TRI) KTRI 251253Z 23008KT 10SM FEW017 SCT028 OVC041 04/02 A2998 RMK AO2 SLP145 T00390017 VFR
Knoxville Regional (TYS) KTYS 251253Z 24007KT 10SM OVC047 04/M01 A3003 RMK AO2 SLP172 T00391011 $ VFR